createdAt,value
2022-10-06T00:02:25.423Z,11.78
2022-10-06T00:04:52.352Z,11.86
2022-10-06T00:07:19.556Z,11.87
2022-10-06T00:09:46.780Z,11.77
2022-10-06T00:12:13.721Z,11.87
2022-10-06T00:14:41.048Z,11.85
2022-10-06T00:17:07.959Z,11.81
2022-10-06T00:19:34.816Z,11.83
2022-10-06T00:22:01.890Z,11.87
2022-10-06T00:24:28.780Z,11.94
2022-10-06T00:26:55.725Z,11.89
2022-10-06T00:29:22.863Z,11.97
2022-10-06T00:31:49.716Z,11.96
2022-10-06T00:34:16.626Z,11.94
2022-10-06T00:36:44.036Z,12.01
2022-10-06T00:39:10.928Z,11.89
2022-10-06T00:41:39.078Z,11.97
2022-10-06T00:44:06.144Z,11.88
2022-10-06T00:46:33.849Z,11.88
2022-10-06T00:49:24.236Z,11.97
2022-10-06T00:52:00.276Z,11.98
2022-10-06T00:54:27.688Z,12.04
2022-10-06T00:56:54.750Z,11.97
2022-10-06T00:59:21.660Z,11.97
2022-10-06T01:02:07.345Z,11.86
2022-10-06T01:04:36.912Z,11.81
2022-10-06T01:07:04.215Z,11.89
2022-10-06T01:09:31.667Z,11.90
2022-10-06T01:12:00.907Z,11.79
2022-10-06T01:14:28.435Z,11.83
2022-10-06T01:17:15.618Z,11.75
2022-10-06T01:19:57.629Z,11.76
2022-10-06T01:22:27.585Z,11.79
2022-10-06T01:24:55.062Z,11.71
2022-10-06T01:27:23.628Z,11.86
2022-10-06T01:29:52.876Z,11.81
2022-10-06T01:32:20.732Z,11.82
2022-10-06T01:34:47.641Z,11.86
2022-10-06T01:37:15.032Z,11.89
2022-10-06T01:39:42.498Z,11.95
2022-10-06T01:42:10.183Z,11.94
2022-10-06T01:44:37.142Z,11.96
2022-10-06T01:47:05.164Z,11.99
2022-10-06T01:49:32.104Z,12.02
2022-10-06T01:51:59.341Z,12.03
2022-10-06T01:54:26.477Z,11.98
2022-10-06T01:56:53.569Z,12.01
2022-10-06T01:59:20.440Z,11.98
2022-10-06T02:01:47.728Z,11.87
2022-10-06T02:04:14.886Z,11.87
2022-10-06T02:06:41.802Z,11.88
2022-10-06T02:09:08.964Z,11.81
2022-10-06T02:11:36.031Z,11.82
2022-10-06T02:14:02.951Z,11.78
2022-10-06T02:16:30.382Z,11.78
2022-10-06T02:18:57.247Z,11.72
2022-10-06T02:21:25.461Z,11.66
2022-10-06T02:23:52.655Z,11.69
2022-10-06T02:26:19.575Z,11.75
2022-10-06T02:28:50.272Z,11.67
2022-10-06T02:31:18.104Z,11.68
2022-10-06T02:33:45.080Z,11.78
2022-10-06T02:36:13.236Z,11.72
2022-10-06T02:38:41.750Z,11.81
2022-10-06T02:41:08.804Z,11.75
2022-10-06T02:43:36.029Z,11.77
2022-10-06T02:46:04.617Z,11.76
2022-10-06T02:48:32.280Z,11.85
2022-10-06T02:51:04.736Z,11.77
2022-10-06T02:53:31.848Z,11.72
2022-10-06T02:56:06.467Z,11.67
2022-10-06T02:58:33.577Z,11.75
2022-10-06T03:01:05.011Z,11.80
2022-10-06T03:03:32.464Z,11.78
2022-10-06T03:06:00.789Z,11.83
2022-10-06T03:08:27.922Z,11.93
2022-10-06T03:11:05.052Z,11.78
2022-10-06T03:13:32.254Z,11.60
2022-10-06T03:15:59.185Z,11.48
2022-10-06T03:18:26.705Z,11.30
2022-10-06T03:20:54.243Z,11.36
2022-10-06T03:23:21.121Z,11.32
2022-10-06T03:25:55.204Z,11.28
2022-10-06T03:28:22.364Z,11.31
2022-10-06T03:30:49.211Z,11.25
2022-10-06T03:33:16.119Z,11.22
2022-10-06T03:35:43.278Z,11.24
2022-10-06T03:38:10.080Z,11.16
2022-10-06T03:40:36.951Z,11.19
2022-10-06T03:43:04.528Z,11.22
2022-10-06T03:45:31.354Z,11.31
2022-10-06T03:47:59.404Z,11.37
2022-10-06T03:50:26.512Z,11.37
2022-10-06T03:52:53.425Z,11.34
2022-10-06T03:55:20.714Z,11.36
2022-10-06T03:57:47.938Z,11.46
2022-10-06T04:00:15.033Z,11.46
2022-10-06T04:02:41.886Z,11.47
2022-10-06T04:05:09.277Z,11.50
2022-10-06T04:07:36.214Z,11.48
2022-10-06T04:10:03.366Z,11.55
2022-10-06T04:12:30.455Z,11.59
2022-10-06T04:15:00.129Z,11.67
2022-10-06T04:17:27.242Z,11.63
2022-10-06T04:19:54.272Z,11.71
2022-10-06T04:22:21.112Z,11.70
2022-10-06T04:24:48.029Z,11.68
2022-10-06T04:27:30.772Z,11.68
2022-10-06T04:29:58.044Z,11.71
2022-10-06T04:32:25.872Z,11.76
2022-10-06T04:34:52.737Z,11.82
2022-10-06T04:37:19.675Z,11.88
2022-10-06T04:39:46.756Z,11.87
2022-10-06T04:42:13.776Z,11.97
2022-10-06T04:44:40.644Z,11.98
2022-10-06T04:47:07.744Z,12.16
2022-10-06T04:49:34.891Z,12.32
2022-10-06T04:52:01.842Z,12.49
2022-10-06T04:54:33.401Z,12.59
2022-10-06T04:57:00.635Z,12.60
2022-10-06T04:59:47.411Z,12.70
2022-10-06T05:02:14.607Z,12.65
2022-10-06T05:04:41.539Z,12.69
2022-10-06T05:07:08.384Z,12.66
2022-10-06T05:09:35.546Z,12.66
2022-10-06T05:12:02.402Z,12.82
2022-10-06T05:14:29.338Z,12.88
2022-10-06T05:16:56.687Z,12.82
2022-10-06T05:19:23.605Z,12.74
2022-10-06T05:21:50.883Z,12.77
2022-10-06T05:24:17.806Z,12.72
2022-10-06T05:26:44.667Z,12.79
2022-10-06T05:29:11.812Z,12.90
2022-10-06T05:31:40.486Z,12.91
2022-10-06T05:34:07.435Z,13.01
2022-10-06T05:36:35.056Z,12.93
2022-10-06T05:39:02.962Z,13.00
2022-10-06T05:41:30.937Z,13.08
2022-10-06T05:43:59.099Z,13.10
2022-10-06T05:46:33.413Z,12.89
2022-10-06T05:49:01.845Z,12.87
2022-10-06T05:51:31.191Z,12.87
2022-10-06T05:53:59.084Z,12.91
2022-10-06T05:56:30.783Z,12.90
2022-10-06T05:58:58.208Z,12.95
2022-10-06T06:01:26.513Z,13.01
2022-10-06T06:03:54.481Z,12.89
2022-10-06T06:06:26.029Z,13.03
2022-10-06T06:08:54.360Z,13.08
2022-10-06T06:11:27.960Z,13.22
2022-10-06T06:14:04.142Z,13.15
2022-10-06T06:16:32.152Z,12.92
2022-10-06T06:19:00.361Z,12.91
2022-10-06T06:21:28.185Z,13.05
2022-10-06T06:23:55.859Z,13.11
2022-10-06T06:26:24.263Z,13.20
2022-10-06T06:28:52.309Z,13.08
2022-10-06T06:31:23.709Z,13.07
2022-10-06T06:33:52.153Z,13.43
2022-10-06T06:36:25.001Z,13.28
2022-10-06T06:38:53.132Z,13.31
2022-10-06T06:41:21.608Z,13.31
2022-10-06T06:43:49.601Z,13.42
2022-10-06T06:46:17.958Z,13.33
2022-10-06T06:48:45.177Z,13.14
2022-10-06T06:51:12.167Z,12.78
2022-10-06T06:53:40.012Z,12.89
2022-10-06T06:56:08.481Z,12.94
2022-10-06T06:58:36.405Z,13.07
2022-10-06T07:01:07.492Z,13.08
2022-10-06T07:03:56.125Z,13.21
2022-10-06T07:06:27.115Z,13.17
2022-10-06T07:08:55.427Z,13.26
2022-10-06T07:11:30.263Z,13.39
2022-10-06T07:13:58.331Z,13.39
2022-10-06T07:16:44.308Z,13.41
2022-10-06T07:19:30.300Z,13.34
2022-10-06T07:22:35.702Z,13.29
2022-10-06T07:25:12.728Z,13.24
2022-10-06T07:27:44.179Z,13.34
2022-10-06T07:30:19.227Z,13.43
2022-10-06T07:32:47.224Z,13.49
2022-10-06T07:35:14.253Z,13.50
2022-10-06T07:37:41.322Z,13.44
2022-10-06T07:40:09.113Z,13.34
2022-10-06T07:42:48.620Z,13.49
2022-10-06T07:45:34.843Z,13.49
2022-10-06T07:48:02.551Z,13.65
2022-10-06T07:50:29.691Z,13.66
2022-10-06T07:52:56.619Z,13.80
2022-10-06T07:55:23.599Z,13.76
2022-10-06T07:57:51.419Z,13.72
2022-10-06T08:00:22.484Z,13.82
2022-10-06T08:02:49.925Z,13.89
2022-10-06T08:05:17.051Z,14.32
2022-10-06T08:07:43.966Z,14.73
2022-10-06T08:10:10.895Z,15.70
2022-10-06T08:12:40.131Z,16.63
2022-10-06T08:15:08.377Z,17.27
2022-10-06T08:17:36.139Z,17.79
2022-10-06T08:20:04.564Z,18.38
2022-10-06T08:22:31.492Z,18.14
2022-10-06T08:25:06.857Z,17.93
2022-10-06T08:27:36.947Z,18.79
2022-10-06T08:30:07.596Z,19.57
2022-10-06T08:32:34.425Z,20.17
2022-10-06T08:35:01.751Z,20.64
2022-10-06T08:37:28.707Z,20.15
2022-10-06T08:39:55.990Z,19.19
2022-10-06T08:42:32.072Z,19.27
2022-10-06T08:45:05.035Z,20.15
2022-10-06T08:47:36.115Z,20.28
2022-10-06T08:50:05.121Z,20.69
2022-10-06T08:52:35.019Z,20.43
2022-10-06T08:55:07.669Z,20.27
2022-10-06T08:57:53.387Z,20.72
2022-10-06T09:00:21.439Z,21.17
2022-10-06T09:02:50.383Z,20.46
2022-10-06T09:05:25.512Z,20.12
2022-10-06T09:07:59.478Z,20.12
2022-10-06T09:10:38.667Z,21.52
2022-10-06T09:13:25.988Z,22.31
2022-10-06T09:15:59.461Z,21.60
2022-10-06T09:18:48.996Z,20.08
2022-10-06T09:21:17.000Z,19.95
2022-10-06T09:23:51.778Z,19.67
2022-10-06T09:26:30.192Z,19.22
2022-10-06T09:29:02.817Z,18.92
2022-10-06T09:31:41.989Z,19.17
2022-10-06T09:34:18.858Z,19.51
2022-10-06T09:37:05.718Z,19.58
2022-10-06T09:39:36.636Z,20.29
2022-10-06T09:42:06.995Z,20.61
2022-10-06T09:44:40.676Z,20.25
2022-10-06T09:47:22.533Z,19.66
2022-10-06T09:50:04.899Z,20.68
2022-10-06T09:52:33.977Z,20.40
2022-10-06T09:55:20.059Z,20.98
2022-10-06T09:57:52.962Z,20.57
2022-10-06T10:00:39.511Z,20.40
2022-10-06T10:03:11.199Z,19.61
2022-10-06T10:05:39.754Z,19.70
2022-10-06T10:08:10.212Z,19.41
2022-10-06T10:10:37.540Z,20.02
2022-10-06T10:13:18.043Z,20.42
2022-10-06T10:15:59.100Z,21.18
2022-10-06T10:18:28.953Z,21.82
2022-10-06T10:21:05.212Z,22.32
2022-10-06T10:23:35.277Z,22.02
2022-10-06T10:26:14.224Z,21.49
2022-10-06T10:28:51.718Z,21.91
2022-10-06T10:31:39.128Z,21.98
2022-10-06T10:34:24.207Z,21.36
2022-10-06T10:36:57.690Z,21.74
2022-10-06T10:39:28.008Z,21.93
2022-10-06T10:41:56.658Z,21.78
2022-10-06T10:44:32.635Z,21.36
2022-10-06T10:47:19.386Z,20.75
2022-10-06T10:49:51.190Z,19.72
2022-10-06T10:52:24.238Z,19.12
2022-10-06T10:55:16.270Z,19.02
2022-10-06T10:57:44.215Z,19.52
2022-10-06T11:00:22.997Z,19.73
2022-10-06T11:02:53.326Z,19.83
2022-10-06T11:05:35.438Z,19.67
2022-10-06T11:08:17.068Z,19.11
2022-10-06T11:10:43.890Z,19.29
2022-10-06T11:13:16.764Z,18.79
2022-10-06T11:16:02.257Z,18.58
2022-10-06T11:18:45.326Z,18.16
2022-10-06T11:21:14.576Z,18.23
2022-10-06T11:23:41.672Z,18.02
2022-10-06T11:26:25.472Z,17.63
2022-10-06T11:29:15.215Z,17.69
2022-10-06T11:31:42.100Z,17.51
2022-10-06T11:34:09.887Z,17.67
2022-10-06T11:36:55.308Z,17.26
2022-10-06T11:39:34.468Z,17.35
2022-10-06T11:42:07.517Z,17.29
2022-10-06T11:44:53.342Z,16.59
2022-10-06T11:47:35.563Z,16.29
2022-10-06T11:50:24.037Z,16.59
2022-10-06T11:52:52.633Z,16.30
2022-10-06T11:55:22.212Z,16.50
2022-10-06T11:58:12.623Z,16.15
2022-10-06T12:00:51.436Z,15.97
2022-10-06T12:03:31.314Z,16.43
2022-10-06T12:05:58.369Z,16.18
2022-10-06T12:08:38.745Z,16.42
2022-10-06T12:11:24.670Z,16.53
2022-10-06T12:19:53.519Z,17.07
2022-10-06T12:22:31.261Z,17.00
2022-10-06T12:25:11.576Z,17.04
2022-10-06T12:27:42.124Z,16.39
2022-10-06T12:30:19.728Z,15.99
2022-10-06T12:32:57.589Z,15.97
2022-10-06T12:35:36.797Z,16.27
2022-10-06T12:38:05.559Z,16.24
2022-10-06T12:40:51.423Z,16.09
2022-10-06T12:43:18.590Z,16.15
2022-10-06T12:46:00.968Z,15.91
2022-10-06T12:48:28.136Z,16.09
2022-10-06T12:51:04.234Z,16.35
2022-10-06T12:53:37.157Z,16.41
2022-10-06T12:56:05.365Z,16.27
2022-10-06T12:58:33.514Z,16.33
2022-10-06T13:01:01.646Z,16.23
2022-10-06T13:03:29.294Z,16.36
2022-10-06T13:05:57.922Z,16.29
2022-10-06T13:08:26.544Z,16.07
2022-10-06T13:11:10.918Z,16.08
2022-10-06T13:13:38.477Z,16.16
2022-10-06T13:16:06.322Z,16.24
2022-10-06T13:18:33.331Z,16.30
2022-10-06T13:21:00.961Z,16.43
2022-10-06T13:23:29.686Z,16.40
2022-10-06T13:25:58.352Z,16.23
2022-10-06T13:28:25.474Z,16.22
2022-10-06T13:33:41.850Z,16.39
2022-10-06T13:36:09.326Z,16.43
2022-10-06T13:38:41.304Z,16.34
2022-10-06T13:41:13.958Z,16.15
2022-10-06T13:43:49.847Z,15.91
2022-10-06T13:46:19.714Z,15.91
2022-10-06T13:48:51.611Z,16.02
2022-10-06T13:51:31.939Z,15.97
2022-10-06T13:54:01.285Z,15.94
2022-10-06T13:58:55.997Z,15.78
2022-10-06T14:01:30.006Z,15.85
2022-10-06T14:04:13.562Z,15.98
2022-10-06T14:07:06.888Z,15.94
2022-10-06T14:09:33.974Z,15.80
2022-10-06T14:12:03.547Z,15.87
2022-10-06T14:14:30.485Z,15.92
2022-10-06T14:16:58.277Z,15.95
2022-10-06T14:19:35.865Z,16.00
2022-10-06T14:22:04.401Z,15.94
2022-10-06T14:24:34.408Z,16.06
2022-10-06T14:27:02.245Z,16.07
2022-10-06T14:29:29.312Z,16.07
2022-10-06T14:32:06.219Z,16.25
2022-10-06T14:34:33.145Z,16.30
2022-10-06T14:37:00.630Z,16.35
2022-10-06T14:39:28.608Z,16.29
2022-10-06T14:41:55.530Z,15.88
2022-10-06T14:44:22.717Z,15.89
2022-10-06T14:46:49.698Z,15.66
2022-10-06T14:49:17.031Z,15.64
2022-10-06T14:51:44.653Z,15.68
2022-10-06T14:54:12.116Z,15.56
2022-10-06T14:56:39.520Z,15.61
2022-10-06T14:59:08.026Z,15.50
2022-10-06T15:01:36.430Z,15.34
2022-10-06T15:04:04.821Z,15.34
2022-10-06T15:06:50.606Z,15.39
2022-10-06T15:09:17.524Z,15.38
2022-10-06T15:11:44.718Z,15.27
2022-10-06T15:14:11.745Z,15.29
2022-10-06T15:16:42.366Z,15.15
2022-10-06T15:19:12.102Z,15.10
2022-10-06T15:21:39.944Z,15.04
2022-10-06T15:24:08.005Z,15.14
2022-10-06T15:26:53.735Z,15.02
2022-10-06T15:29:20.585Z,15.00
2022-10-06T15:31:52.990Z,14.95
2022-10-06T15:34:21.780Z,14.89
2022-10-06T15:36:51.919Z,14.69
2022-10-06T15:39:20.428Z,14.72
2022-10-06T15:41:48.588Z,14.78
2022-10-06T15:44:16.193Z,14.75
2022-10-06T15:46:44.537Z,14.70
2022-10-06T15:49:13.256Z,14.56
2022-10-06T15:51:50.440Z,14.61
2022-10-06T15:54:22.156Z,14.50
2022-10-06T15:56:50.205Z,14.52
2022-10-06T15:59:17.640Z,14.41
2022-10-06T16:01:47.140Z,14.48
2022-10-06T16:04:31.094Z,14.35
2022-10-06T16:06:58.494Z,14.23
2022-10-06T16:09:29.421Z,14.05
2022-10-06T16:11:57.133Z,13.92
2022-10-06T16:14:24.565Z,13.85
2022-10-06T16:16:52.222Z,13.77
2022-10-06T16:19:19.448Z,13.61
2022-10-06T16:21:47.671Z,13.40
2022-10-06T16:24:15.405Z,13.14
2022-10-06T16:26:42.294Z,13.00
2022-10-06T16:29:09.272Z,12.88
2022-10-06T16:31:36.562Z,12.71
2022-10-06T16:34:03.976Z,12.78
2022-10-06T16:36:30.966Z,12.80
2022-10-06T16:38:58.096Z,12.86
2022-10-06T16:41:24.998Z,12.77
2022-10-06T16:43:53.376Z,12.59
2022-10-06T16:46:22.744Z,12.56
2022-10-06T16:48:50.557Z,12.34
2022-10-06T19:48:34.648Z,7.60
2022-10-06T19:51:10.478Z,7.71
2022-10-06T19:53:37.417Z,7.86
2022-10-06T19:56:05.284Z,7.95
2022-10-06T19:58:32.512Z,8.13
2022-10-06T20:01:00.232Z,8.23
2022-10-06T20:03:27.480Z,8.04
2022-10-06T20:05:54.305Z,7.99
2022-10-06T20:08:21.203Z,7.98
2022-10-06T20:10:48.410Z,8.10
2022-10-06T20:13:15.271Z,8.23
2022-10-06T20:15:42.235Z,8.01
2022-10-06T20:18:09.368Z,8.00
2022-10-06T20:20:36.821Z,7.93
2022-10-06T20:23:03.690Z,7.93
2022-10-06T20:25:31.685Z,7.90
2022-10-06T20:27:58.785Z,7.96
2022-10-06T20:30:25.691Z,8.00
2022-10-06T20:32:53.728Z,7.98
2022-10-06T20:35:20.586Z,7.90
2022-10-06T20:37:47.676Z,7.84
2022-10-06T20:40:33.381Z,7.92
2022-10-06T20:43:00.982Z,7.74
2022-10-06T20:45:30.022Z,7.69
2022-10-06T20:47:58.340Z,7.77
2022-10-06T20:50:25.484Z,7.99
2022-10-06T20:52:54.792Z,8.11
2022-10-06T20:55:21.730Z,8.25
2022-10-06T20:57:49.151Z,8.23
2022-10-06T21:00:17.912Z,8.38
2022-10-06T21:02:44.895Z,8.13
2022-10-06T21:05:12.167Z,7.67
2022-10-06T21:07:39.175Z,7.68
2022-10-06T21:10:06.456Z,7.51
2022-10-06T21:12:33.641Z,7.40
2022-10-06T21:15:00.499Z,7.28
2022-10-06T21:17:27.600Z,7.24
2022-10-06T21:19:54.738Z,7.27
2022-10-06T21:22:21.572Z,7.36
2022-10-06T21:24:48.647Z,7.09
2022-10-06T21:27:19.069Z,7.11
2022-10-06T21:29:45.961Z,7.25
2022-10-06T21:32:12.761Z,7.28
2022-10-06T21:34:40.300Z,7.28
2022-10-06T21:37:07.268Z,7.42
2022-10-06T21:39:34.243Z,7.49
2022-10-06T21:42:01.462Z,7.59
2022-10-06T21:44:28.277Z,7.49
2022-10-06T21:46:55.647Z,7.24
2022-10-06T21:49:23.912Z,7.49
2022-10-06T21:51:54.707Z,7.27
2022-10-06T21:54:22.663Z,7.32
2022-10-06T21:56:50.001Z,7.25
2022-10-06T21:59:16.913Z,7.27
2022-10-06T22:01:45.242Z,7.19
2022-10-06T22:04:14.337Z,7.14
2022-10-06T22:06:43.132Z,7.20
2022-10-06T22:09:13.353Z,7.27
2022-10-06T22:11:41.108Z,7.32
2022-10-06T22:14:10.366Z,7.53
2022-10-06T22:16:38.162Z,7.64
2022-10-06T22:19:07.065Z,7.42
2022-10-06T22:21:35.667Z,7.37
2022-10-06T22:24:07.193Z,7.38
2022-10-06T22:26:37.422Z,7.28
2022-10-06T22:29:06.153Z,7.28
2022-10-06T22:31:33.144Z,7.22
2022-10-06T22:34:01.961Z,7.13
2022-10-06T22:36:28.847Z,7.11
2022-10-06T22:38:56.112Z,6.92
2022-10-06T22:41:23.659Z,7.04
2022-10-06T22:43:53.182Z,7.03
2022-10-06T22:46:20.043Z,6.88
2022-10-06T22:48:47.333Z,7.02
2022-10-06T22:51:14.161Z,7.08
2022-10-06T22:53:41.013Z,6.91
2022-10-06T22:56:08.150Z,6.88
2022-10-06T22:58:34.991Z,6.86
2022-10-06T23:01:09.358Z,6.71
2022-10-06T23:03:36.608Z,6.77
2022-10-06T23:06:04.050Z,6.78
2022-10-06T23:08:35.109Z,6.68
2022-10-06T23:11:09.957Z,6.75
2022-10-06T23:13:36.927Z,6.63
2022-10-06T23:16:07.512Z,6.58
2022-10-06T23:18:36.024Z,6.69
2022-10-06T23:21:04.180Z,6.60
2022-10-06T23:23:31.521Z,6.55
2022-10-06T23:26:02.847Z,6.37
2022-10-06T23:28:29.705Z,6.48
2022-10-06T23:30:56.878Z,6.55
2022-10-06T23:33:23.939Z,6.48
2022-10-06T23:36:01.162Z,6.64
2022-10-06T23:38:28.706Z,6.54
2022-10-06T23:40:56.002Z,6.29
2022-10-06T23:43:23.139Z,6.50
2022-10-06T23:45:54.823Z,6.49
2022-10-06T23:48:22.359Z,6.45
2022-10-06T23:50:56.537Z,6.30
2022-10-06T23:53:23.829Z,6.24
2022-10-06T23:55:50.595Z,6.25
2022-10-06T23:58:17.443Z,6.02
